Time;durP1;ratioP1;P1;durP2;ratioP2;P2;SDS_P1;SDS_P2;PMS_P1;PMS_P2;Temp;Humidity;BMP_temperature;BMP_pressure;BME280_temperature;BME280_humidity;BME280_pressure;Samples;Min_cycle;Max_cycle;Signal;HPM_P1;HPM_P2
2022/08/26 00:01:38;;;;;;;17.63;5.93;;;;;;;22.06;100.00;100538.66;5189210;28;20027;-73
2022/08/26 00:04:09;;;;;;;18.08;5.95;;;;;;;22.06;100.00;100528.03;5189757;28;20030;-73
2022/08/26 00:06:40;;;;;;;14.18;6.05;;;;;;;22.05;100.00;100525.50;5187076;28;20026;-73
2022/08/26 00:09:11;;;;;;;16.77;6.55;;;;;;;21.98;100.00;100524.31;5189274;28;20045;-73
2022/08/26 00:11:41;;;;;;;14.43;6.15;;;;;;;22.01;100.00;100529.38;5188535;28;20033;-73
2022/08/26 00:14:12;;;;;;;19.20;6.53;;;;;;;22.07;100.00;100531.53;5192953;28;20091;-73
2022/08/26 00:16:43;;;;;;;22.00;6.30;;;;;;;21.91;100.00;100528.47;5188932;28;20096;-73
2022/08/26 00:19:15;;;;;;;17.45;6.18;;;;;;;21.92;100.00;100538.13;5182434;28;20026;-73
2022/08/26 00:21:47;;;;;;;18.02;5.40;;;;;;;21.98;100.00;100530.50;5193996;28;20028;-73
2022/08/26 00:24:19;;;;;;;19.70;5.57;;;;;;;21.99;100.00;100528.66;5166311;28;20105;-73
2022/08/26 00:26:50;;;;;;;15.40;5.80;;;;;;;21.94;100.00;100534.34;5167828;28;20454;-74
2022/08/26 00:29:20;;;;;;;18.88;6.45;;;;;;;21.88;100.00;100532.22;5194642;28;20026;-74
2022/08/26 00:31:51;;;;;;;16.95;5.78;;;;;;;21.89;100.00;100527.75;5190856;28;20143;-73
2022/08/26 00:34:21;;;;;;;12.32;5.22;;;;;;;21.86;100.00;100525.31;5195378;28;20040;-73
2022/08/26 00:36:52;;;;;;;16.52;6.00;;;;;;;21.75;100.00;100522.72;5188979;28;20403;-73
2022/08/26 00:39:23;;;;;;;10.75;5.40;;;;;;;21.69;100.00;100523.19;5168024;28;20022;-73
2022/08/26 00:41:53;;;;;;;14.73;5.63;;;;;;;21.73;100.00;100524.66;5180944;28;20088;-73
2022/08/26 00:44:23;;;;;;;15.23;5.90;;;;;;;21.69;100.00;100517.88;5190466;28;20112;-73
2022/08/26 00:46:58;;;;;;;16.50;5.72;;;;;;;21.66;100.00;100521.66;5220397;22;20332;-79
2022/08/26 00:49:36;;;;;;;15.88;6.07;;;;;;;21.57;100.00;100517.03;5198932;28;20045;-80
2022/08/26 00:52:13;;;;;;;14.43;5.78;;;;;;;21.51;100.00;100519.34;5206622;28;20055;-79
2022/08/26 00:55:12;;;;;;;14.05;5.60;;;;;;;21.45;100.00;100518.06;5205624;28;20021;-79
2022/08/26 00:57:43;;;;;;;18.67;6.03;;;;;;;21.49;100.00;100515.97;5195486;28;20037;-79
2022/08/26 01:00:19;;;;;;;21.48;6.65;;;;;;;21.43;100.00;100516.47;5200856;28;20048;-78
2022/08/26 01:02:50;;;;;;;15.77;5.50;;;;;;;21.44;100.00;100512.84;5223387;28;20040;-79
2022/08/26 01:05:21;;;;;;;11.32;5.68;;;;;;;21.40;100.00;100511.41;5206575;28;20029;-79
2022/08/26 01:07:52;;;;;;;19.20;6.65;;;;;;;21.44;100.00;100512.84;5194436;28;20022;-79
2022/08/26 01:10:28;;;;;;;19.27;6.18;;;;;;;21.45;100.00;100519.84;5215844;28;20032;-79
2022/08/26 01:13:02;;;;;;;13.90;5.90;;;;;;;21.41;100.00;100518.41;5225011;28;20040;-79
2022/08/26 01:15:36;;;;;;;20.40;6.47;;;;;;;21.25;100.00;100523.28;5219810;28;20029;-80
2022/08/26 01:18:07;;;;;;;15.85;6.43;;;;;;;21.20;100.00;100514.84;5212538;28;20022;-78
2022/08/26 01:20:49;;;;;;;14.43;6.40;;;;;;;21.25;100.00;100517.97;5203493;28;20036;-79
2022/08/26 01:23:20;;;;;;;16.17;5.80;;;;;;;21.20;100.00;100509.50;5216311;28;20035;-78
2022/08/26 01:25:56;;;;;;;15.15;5.88;;;;;;;21.14;100.00;100512.66;5214638;28;20113;-78
2022/08/26 01:28:29;;;;;;;15.27;6.10;;;;;;;21.12;100.00;100517.25;5215628;28;20021;-79
2022/08/26 01:31:02;;;;;;;22.65;6.00;;;;;;;21.10;100.00;100513.88;5224709;28;20095;-80
2022/08/26 01:34:07;;;;;;;15.95;6.60;;;;;;;21.01;100.00;100509.25;5225490;28;20025;-79
2022/08/26 01:36:38;;;;;;;14.13;6.05;;;;;;;21.05;100.00;100516.06;5189638;28;20037;-79
2022/08/26 01:39:09;;;;;;;14.55;6.07;;;;;;;21.05;100.00;100505.41;5221650;28;20029;-79
2022/08/26 01:41:39;;;;;;;15.80;6.32;;;;;;;21.07;100.00;100508.78;5207991;28;20033;-77
2022/08/26 01:44:15;;;;;;;17.80;6.63;;;;;;;21.09;100.00;100509.50;5200372;28;20052;-79
2022/08/26 01:46:49;;;;;;;14.60;6.10;;;;;;;21.08;100.00;100510.50;5222873;28;20029;-79
2022/08/26 01:49:22;;;;;;;19.48;6.90;;;;;;;21.08;100.00;100513.16;5216000;28;20037;-80
2022/08/26 01:51:55;;;;;;;18.83;6.45;;;;;;;21.05;100.00;100511.56;5220588;28;20029;-78
2022/08/26 01:54:26;;;;;;;20.55;6.45;;;;;;;21.06;100.00;100512.44;5216952;28;20021;-80
2022/08/26 01:56:57;;;;;;;12.93;6.03;;;;;;;21.04;100.00;100512.53;5224866;28;20022;-80
2022/08/26 01:59:29;;;;;;;14.02;6.20;;;;;;;21.00;100.00;100510.22;5226846;28;20021;-81
2022/08/26 02:02:00;;;;;;;20.75;6.65;;;;;;;21.00;100.00;100513.75;5213565;28;20035;-80
2022/08/26 02:04:38;;;;;;;20.25;6.28;;;;;;;21.00;100.00;100512.88;5227293;28;20071;-80
2022/08/26 02:07:09;;;;;;;19.75;6.28;;;;;;;20.85;100.00;100501.66;5224876;28;20578;-80
2022/08/26 02:09:40;;;;;;;22.88;6.75;;;;;;;20.67;100.00;100504.88;5224947;28;20045;-80
2022/08/26 02:12:13;;;;;;;15.10;6.47;;;;;;;20.59;100.00;100503.78;5225640;28;20060;-80
2022/08/26 02:14:50;;;;;;;15.68;6.40;;;;;;;20.70;100.00;100499.34;5229156;28;20032;-80
2022/08/26 02:17:28;;;;;;;18.27;6.22;;;;;;;20.79;100.00;100506.59;5222951;28;20021;-80
2022/08/26 02:19:58;;;;;;;14.23;5.53;;;;;;;20.84;100.00;100497.31;5227316;28;20045;-80
2022/08/26 02:22:29;;;;;;;12.45;6.10;;;;;;;20.79;100.00;100503.94;5235258;28;20044;-80
2022/08/26 02:25:09;;;;;;;14.23;6.65;;;;;;;20.57;100.00;100505.72;5232863;28;20036;-81
2022/08/26 02:27:40;;;;;;;15.80;6.07;;;;;;;20.44;100.00;100502.34;5227826;28;20614;-81
2022/08/26 02:30:17;;;;;;;13.80;6.30;;;;;;;20.48;100.00;100509.94;5231770;28;20048;-80
2022/08/26 02:32:48;;;;;;;18.13;6.85;;;;;;;20.34;100.00;100504.84;5236580;28;20053;-79
2022/08/26 02:35:21;;;;;;;20.08;6.80;;;;;;;20.16;100.00;100497.44;5234964;28;20083;-81
2022/08/26 02:37:52;;;;;;;15.07;6.78;;;;;;;20.09;100.00;100504.19;5234871;28;20050;-80
2022/08/26 02:40:26;;;;;;;14.68;6.65;;;;;;;19.92;100.00;100497.44;5212165;28;20017;-80
2022/08/26 02:42:57;;;;;;;20.77;7.53;;;;;;;19.94;100.00;100495.53;5235432;28;20025;-79
2022/08/26 02:45:27;;;;;;;20.88;7.68;;;;;;;19.99;100.00;100489.88;5233897;28;20093;-80
2022/08/26 02:47:59;;;;;;;20.58;7.55;;;;;;;20.16;100.00;100498.28;5210203;28;20222;-79
2022/08/26 02:50:29;;;;;;;18.00;7.35;;;;;;;20.20;100.00;100489.13;5236459;28;20033;-81
2022/08/26 02:53:00;;;;;;;15.13;6.88;;;;;;;20.17;100.00;100489.38;5236343;28;20032;-80
2022/08/26 02:55:31;;;;;;;13.95;6.55;;;;;;;20.12;100.00;100490.69;5237312;28;20044;-80
2022/08/26 02:58:02;;;;;;;19.10;7.57;;;;;;;20.10;100.00;100488.13;5217148;28;20117;-80
2022/08/26 03:00:36;;;;;;;24.15;7.30;;;;;;;20.02;100.00;100485.22;5232493;28;20025;-78
2022/08/26 03:03:06;;;;;;;22.10;7.32;;;;;;;19.95;100.00;100491.06;5230343;28;20314;-81
2022/08/26 03:05:36;;;;;;;16.90;7.25;;;;;;;19.99;100.00;100489.88;5219669;28;20025;-80
2022/08/26 03:08:10;;;;;;;18.23;7.68;;;;;;;19.97;100.00;100484.66;5232683;28;20084;-80
2022/08/26 03:10:40;;;;;;;19.65;7.35;;;;;;;19.91;100.00;100481.63;5214812;28;20025;-80
2022/08/26 03:13:11;;;;;;;21.98;7.38;;;;;;;19.78;100.00;100481.72;5233686;28;20043;-78
2022/08/26 03:15:41;;;;;;;20.13;7.05;;;;;;;19.94;100.00;100478.78;5215169;28;20037;-80
2022/08/26 03:18:12;;;;;;;18.95;7.50;;;;;;;20.09;100.00;100478.47;5203762;28;20060;-80
2022/08/26 03:20:42;;;;;;;15.38;8.02;;;;;;;19.93;100.00;100477.91;5228775;28;20036;-77
2022/08/26 03:23:12;;;;;;;20.67;7.65;;;;;;;20.06;100.00;100481.38;5226860;28;20022;-81
2022/08/26 03:25:48;;;;;;;17.95;7.18;;;;;;;20.25;100.00;100479.00;5231047;28;20140;-80
2022/08/26 03:28:19;;;;;;;16.92;7.05;;;;;;;20.30;100.00;100473.34;5230386;28;20056;-79
2022/08/26 03:30:49;;;;;;;25.15;7.72;;;;;;;20.33;100.00;100478.41;5228387;28;20025;-81
2022/08/26 03:33:21;;;;;;;17.27;7.30;;;;;;;20.31;100.00;100473.22;5210959;28;20091;-81
2022/08/26 03:35:52;;;;;;;17.30;6.88;;;;;;;20.21;100.00;100479.34;5224152;28;20309;-79
2022/08/26 03:38:24;;;;;;;22.10;8.05;;;;;;;19.95;100.00;100475.97;5223302;28;20025;-79
2022/08/26 03:40:55;;;;;;;15.20;7.15;;;;;;;19.97;100.00;100465.25;5210114;28;20044;-81
2022/08/26 03:43:25;;;;;;;22.27;7.57;;;;;;;19.97;100.00;100468.75;5229387;28;20024;-80
2022/08/26 03:45:56;;;;;;;16.77;7.78;;;;;;;19.98;100.00;100467.78;5209161;28;20024;-80
2022/08/26 03:48:27;;;;;;;16.13;7.40;;;;;;;19.88;100.00;100474.78;5222646;28;20033;-81
2022/08/26 03:50:57;;;;;;;13.70;6.85;;;;;;;19.89;100.00;100472.94;5218546;28;20051;-80
2022/08/26 03:53:27;;;;;;;15.20;7.38;;;;;;;19.89;100.00;100468.50;5225547;28;20036;-80
2022/08/26 03:55:58;;;;;;;19.17;7.28;;;;;;;19.77;100.00;100468.59;5216272;28;20044;-79
2022/08/26 03:58:30;;;;;;;16.45;8.18;;;;;;;19.63;100.00;100466.09;5227839;28;20082;-81
2022/08/26 04:01:01;;;;;;;20.55;7.88;;;;;;;19.64;100.00;100468.63;5231911;28;20029;-80
2022/08/26 04:06:21;;;;;;;17.90;7.95;;;;;;;19.87;100.00;100467.78;5229878;28;20244;-77
2022/08/26 04:08:53;;;;;;;22.58;7.85;;;;;;;19.95;100.00;100467.19;5229435;28;20042;-81
2022/08/26 04:11:29;;;;;;;15.02;7.45;;;;;;;19.82;100.00;100464.59;5224925;28;20021;-81
2022/08/26 04:14:01;;;;;;;16.05;7.78;;;;;;;19.77;100.00;100458.81;5232391;28;20324;-80
2022/08/26 04:16:32;;;;;;;16.98;8.13;;;;;;;19.60;100.00;100459.22;5225801;28;20144;-77
2022/08/26 04:19:02;;;;;;;17.58;8.25;;;;;;;19.64;100.00;100458.00;5217978;28;20700;-81
2022/08/26 04:21:33;;;;;;;18.23;8.35;;;;;;;19.70;100.00;100465.53;5208377;28;20025;-81
2022/08/26 04:24:05;;;;;;;19.30;8.27;;;;;;;19.84;100.00;100460.06;5217971;28;20022;-79
2022/08/26 04:26:36;;;;;;;16.95;7.68;;;;;;;19.96;100.00;100464.41;5230935;28;20049;-79
2022/08/26 04:29:10;;;;;;;15.57;7.60;;;;;;;20.09;100.00;100465.22;5228935;28;20029;-81
2022/08/26 04:31:41;;;;;;;19.13;7.82;;;;;;;20.14;100.00;100468.34;5230664;28;20021;-80
2022/08/26 04:34:12;;;;;;;16.27;7.75;;;;;;;20.20;100.00;100462.59;5212269;28;20035;-78
2022/08/26 04:36:43;;;;;;;14.77;7.10;;;;;;;20.26;100.00;100466.59;5207158;28;20087;-78
2022/08/26 04:39:15;;;;;;;14.00;8.13;;;;;;;20.24;100.00;100469.34;5224114;28;20047;-80
2022/08/26 04:41:49;;;;;;;15.50;7.43;;;;;;;20.18;100.00;100464.53;5223624;28;20017;-80
2022/08/26 04:44:24;;;;;;;14.63;7.55;;;;;;;20.23;100.00;100467.66;5215475;28;20025;-80
2022/08/26 04:46:55;;;;;;;18.52;8.20;;;;;;;20.19;100.00;100466.22;5200950;28;20036;-80
2022/08/26 04:49:26;;;;;;;16.02;8.25;;;;;;;20.03;100.00;100470.13;5216710;28;20025;-78
2022/08/26 04:51:56;;;;;;;16.35;7.25;;;;;;;19.61;100.00;100460.06;5210051;28;20029;-80
2022/08/26 04:54:27;;;;;;;22.83;7.93;;;;;;;19.50;100.00;100466.16;5210444;28;20055;-80
2022/08/26 04:56:57;;;;;;;15.00;7.65;;;;;;;19.64;100.00;100465.97;5202321;28;20047;-79
2022/08/26 04:59:27;;;;;;;18.80;8.55;;;;;;;19.83;100.00;100468.09;5221314;28;20021;-79
2022/08/26 05:02:02;;;;;;;18.55;7.85;;;;;;;19.91;100.00;100463.06;5218386;28;20033;-79
2022/08/26 05:04:33;;;;;;;19.48;8.52;;;;;;;20.06;100.00;100462.78;5216935;28;20021;-81
2022/08/26 05:07:04;;;;;;;17.13;8.48;;;;;;;19.83;100.00;100458.34;5199312;28;20041;-81
2022/08/26 05:09:38;;;;;;;16.08;7.35;;;;;;;20.11;100.00;100460.63;5224726;28;20482;-78
2022/08/26 05:12:09;;;;;;;13.70;7.68;;;;;;;20.38;100.00;100461.16;5222299;28;20029;-79
2022/08/26 05:14:40;;;;;;;16.30;7.35;;;;;;;20.49;100.00;100458.50;5213196;28;20033;-79
2022/08/26 05:17:10;;;;;;;12.25;6.82;;;;;;;20.55;100.00;100465.16;5219124;28;20025;-79
2022/08/26 05:19:41;;;;;;;19.00;7.72;;;;;;;20.67;100.00;100465.88;5215742;28;20441;-81
2022/08/26 05:22:11;;;;;;;15.45;7.20;;;;;;;20.77;100.00;100468.66;5207856;28;20030;-79
2022/08/26 05:24:42;;;;;;;15.27;7.30;;;;;;;21.81;100.00;100459.19;5220336;28;20032;-79
2022/08/26 05:27:13;;;;;;;15.88;6.22;;;;;;;22.72;100.00;100453.03;5215933;28;20056;-80
2022/08/26 05:29:44;;;;;;;10.25;5.80;;;;;;;23.42;100.00;100457.34;5220663;28;20037;-79
2022/08/26 05:32:15;;;;;;;18.48;6.93;;;;;;;23.38;95.08;100463.91;5229206;28;20021;-80
2022/08/26 05:34:45;;;;;;;12.02;5.50;;;;;;;24.85;91.86;100466.03;5224631;28;20672;-81
2022/08/26 05:37:15;;;;;;;11.10;5.45;;;;;;;24.97;87.85;100475.56;5217590;28;20025;-81
2022/08/26 05:39:46;;;;;;;11.95;5.28;;;;;;;25.60;87.35;100472.81;5203237;28;20029;-80
2022/08/26 05:42:18;;;;;;;13.00;5.00;;;;;;;25.51;85.04;100472.91;5224496;28;20025;-80
2022/08/26 05:44:52;;;;;;;14.95;5.00;;;;;;;26.60;82.29;100466.16;5229777;28;20025;-80
2022/08/26 05:47:23;;;;;;;14.90;5.82;;;;;;;25.92;83.71;100475.00;5217314;28;20025;-80
2022/08/26 05:49:54;;;;;;;20.80;5.85;;;;;;;25.00;88.38;100477.94;5219255;28;20022;-78
2022/08/26 05:52:25;;;;;;;14.98;5.72;;;;;;;24.66;91.31;100481.31;5220068;28;20022;-80
2022/08/26 05:54:55;;;;;;;19.30;5.90;;;;;;;24.37;91.05;100480.53;5225789;28;20087;-79
2022/08/26 05:57:28;;;;;;;15.30;5.78;;;;;;;23.99;95.51;100476.09;5205810;28;20017;-80
2022/08/26 05:59:59;;;;;;;17.23;5.82;;;;;;;23.53;99.41;100477.72;5220712;28;20029;-80
2022/08/26 06:02:29;;;;;;;21.75;6.88;;;;;;;23.84;96.02;100474.81;5214936;28;20532;-81
2022/08/26 06:04:59;;;;;;;23.30;6.78;;;;;;;23.81;96.15;100487.56;5201264;28;20041;-80
2022/08/26 06:10:19;;;;;;;15.77;6.85;;;;;;;23.63;97.46;100479.41;5213925;28;20071;-79
2022/08/26 06:12:49;;;;;;;16.92;6.40;;;;;;;24.07;94.93;100481.53;5217775;28;20113;-79
2022/08/26 06:15:20;;;;;;;18.15;6.88;;;;;;;23.75;97.28;100483.66;5223608;28;20021;-79
2022/08/26 06:17:51;;;;;;;17.52;6.68;;;;;;;23.62;98.84;100483.06;5216012;28;20064;-80
2022/08/26 06:20:21;;;;;;;21.80;6.88;;;;;;;23.50;98.43;100478.84;5217083;28;20030;-81
2022/08/26 06:25:40;;;;;;;13.15;6.07;;;;;;;23.35;100.00;100485.53;5215846;28;20060;-80
2022/08/26 06:28:12;;;;;;;15.82;7.50;;;;;;;23.61;99.43;100484.06;5221306;28;20033;-81
2022/08/26 06:30:42;;;;;;;19.42;6.60;;;;;;;24.21;95.43;100481.09;5219766;28;20707;-80
2022/08/26 06:33:13;;;;;;;14.85;6.95;;;;;;;24.51;92.86;100472.03;5222552;28;20090;-79
2022/08/26 06:35:45;;;;;;;21.08;7.32;;;;;;;24.30;94.06;100477.59;5223309;28;20021;-79
2022/08/26 06:38:16;;;;;;;21.25;7.18;;;;;;;24.89;94.80;100472.78;5219029;28;20074;-80
2022/08/26 06:40:51;;;;;;;13.45;5.78;;;;;;;26.54;85.35;100474.84;5223007;28;20029;-81
2022/08/26 06:43:24;;;;;;;19.08;6.40;;;;;;;27.07;81.75;100478.97;5198395;28;20025;-80
2022/08/26 06:46:03;;;;;;;21.42;6.68;;;;;;;28.02;77.60;100481.09;5223905;28;20414;-79
2022/08/26 06:48:34;;;;;;;14.75;5.25;;;;;;;29.23;76.42;100485.28;5218758;22;20053;-73
2022/08/26 06:51:11;;;;;;;17.15;5.13;;;;;;;30.24;70.44;100479.59;5202290;28;20113;-73
2022/08/26 06:53:45;;;;;;;22.98;5.20;;;;;;;30.73;68.84;100478.09;5207609;28;20033;-73
2022/08/26 06:56:26;;;;;;;14.02;5.13;;;;;;;30.26;70.98;100480.25;5206104;28;20259;-73
2022/08/26 06:58:56;;;;;;;17.15;4.57;;;;;;;31.49;70.29;100479.34;5202806;28;20017;-73
2022/08/26 07:01:29;;;;;;;10.75;4.30;;;;;;;31.09;69.82;100483.41;5210661;28;20037;-74
2022/08/26 07:04:02;;;;;;;13.15;5.15;;;;;;;29.34;75.03;100487.56;5207549;28;20036;-73
2022/08/26 07:06:37;;;;;;;17.33;5.53;;;;;;;29.98;71.90;100487.19;5190701;28;20056;-73
2022/08/26 07:09:09;;;;;;;15.60;4.80;;;;;;;31.06;70.89;100475.66;5208814;28;20480;-74
2022/08/26 07:11:40;;;;;;;19.50;4.88;;;;;;;32.61;67.54;100473.00;5208353;28;20045;-73
2022/08/26 07:14:11;;;;;;;12.52;4.78;;;;;;;32.02;66.70;100479.75;5209658;28;20310;-73
2022/08/26 07:16:41;;;;;;;17.83;4.97;;;;;;;31.63;68.82;100483.88;5204677;28;20407;-73
2022/08/26 07:19:12;;;;;;;17.42;5.35;;;;;;;32.74;66.46;100497.47;5198136;28;20021;-73
2022/08/26 07:21:42;;;;;;;20.20;4.93;;;;;;;31.75;67.54;100498.63;5207628;28;20067;-73
2022/08/26 07:24:13;;;;;;;15.07;5.40;;;;;;;31.79;67.65;100489.94;5209158;28;20143;-73
2022/08/26 07:26:43;;;;;;;15.63;5.45;;;;;;;31.59;68.39;100494.25;5206902;28;20424;-73
2022/08/26 07:29:15;;;;;;;14.83;5.17;;;;;;;32.94;64.45;100484.91;5209359;28;20029;-73
2022/08/26 07:31:46;;;;;;;18.00;5.00;;;;;;;31.35;69.75;100491.06;5207217;28;20287;-73
2022/08/26 07:34:16;;;;;;;18.10;5.63;;;;;;;31.42;67.31;100481.16;5209665;28;20438;-71
2022/08/26 07:36:46;;;;;;;15.82;5.28;;;;;;;32.57;65.53;100485.22;5205432;28;20029;-73
2022/08/26 07:39:18;;;;;;;14.20;4.95;;;;;;;33.08;65.17;100490.19;5209576;28;20017;-73
2022/08/26 07:41:49;;;;;;;20.58;5.30;;;;;;;31.92;69.36;100494.63;5206883;28;20025;-73
2022/08/26 07:44:19;;;;;;;16.38;5.63;;;;;;;31.76;69.60;100498.44;5210183;28;20024;-73
2022/08/26 07:46:50;;;;;;;22.75;5.95;;;;;;;32.45;66.62;100494.94;5164168;28;1118064;-74
2022/08/26 07:49:25;;;;;;;15.85;5.53;;;;;;;34.18;63.52;100489.75;5198135;28;20021;-73
2022/08/26 07:51:56;;;;;;;18.60;5.95;;;;;;;33.20;64.89;100499.47;5203769;28;20044;-73
2022/08/26 07:54:26;;;;;;;20.13;5.80;;;;;;;34.53;60.99;100493.91;5209008;28;20474;-73
2022/08/26 07:56:57;;;;;;;21.05;5.05;;;;;;;34.56;59.95;100496.22;5207376;28;20033;-73
2022/08/26 07:59:27;;;;;;;20.17;5.70;;;;;;;31.36;67.28;100508.94;5207894;28;20029;-73
2022/08/26 08:01:58;;;;;;;23.48;6.43;;;;;;;30.94;69.16;100501.50;5204452;28;20071;-73
2022/08/26 08:04:28;;;;;;;18.55;6.25;;;;;;;29.56;74.10;100511.06;5208096;28;20025;-73
2022/08/26 08:06:59;;;;;;;22.97;5.83;;;;;;;29.63;75.55;100502.09;5204640;28;20025;-73
2022/08/26 08:09:29;;;;;;;19.27;6.15;;;;;;;29.93;74.30;100501.19;5208022;28;20314;-73
2022/08/26 08:11:59;;;;;;;31.67;7.43;;;;;;;30.24;72.13;100501.19;5206129;28;20033;-73
2022/08/26 08:14:30;;;;;;;23.90;7.65;;;;;;;29.52;74.55;100499.78;5208736;28;20280;-73
2022/08/26 08:17:01;;;;;;;29.60;6.40;;;;;;;30.84;72.45;100506.31;5203087;28;20030;-73
2022/08/26 08:19:31;;;;;;;26.98;5.97;;;;;;;32.20;70.25;100499.09;5199148;28;20034;-73
2022/08/26 08:22:03;;;;;;;28.03;6.70;;;;;;;31.29;71.32;100503.44;5209348;28;20033;-73
2022/08/26 08:24:34;;;;;;;24.70;6.55;;;;;;;31.94;70.27;100495.28;5209860;28;20288;-73
2022/08/26 08:27:04;;;;;;;17.55;6.55;;;;;;;33.87;64.43;100503.03;5207342;28;20029;-73
2022/08/26 08:29:36;;;;;;;20.90;6.63;;;;;;;33.44;66.02;100495.34;5208557;28;20025;-73
2022/08/26 08:32:06;;;;;;;23.88;5.88;;;;;;;33.62;64.22;100493.75;5208822;28;20064;-73
2022/08/26 08:34:37;;;;;;;23.20;5.85;;;;;;;33.90;64.08;100488.22;5192720;28;20060;-73
2022/08/26 08:37:07;;;;;;;20.08;5.57;;;;;;;33.47;64.47;100482.25;5211324;28;20440;-73
2022/08/26 08:39:37;;;;;;;20.52;5.45;;;;;;;34.06;64.70;100482.41;5212121;28;20037;-73
2022/08/26 08:42:34;;;;;;;23.87;6.03;;;;;;;32.49;68.29;100485.41;5213391;28;20265;-73
2022/08/26 08:45:10;;;;;;;18.90;6.28;;;;;;;31.97;68.55;100478.66;5209932;28;20311;-73
2022/08/26 08:47:52;;;;;;;26.27;6.82;;;;;;;30.05;73.10;100485.50;5203768;28;20491;-73
2022/08/26 08:50:33;;;;;;;21.95;6.03;;;;;;;30.20;73.27;100480.94;5203781;28;20048;-73
2022/08/26 08:53:35;;;;;;;23.77;6.63;;;;;;;30.25;72.54;100475.88;5214020;28;20040;-73
2022/08/26 08:56:33;;;;;;;30.45;6.93;;;;;;;30.23;72.58;100472.53;5209762;28;20055;-73
2022/08/26 08:59:23;;;;;;;20.52;6.20;;;;;;;30.20;74.54;100459.38;5209326;28;20029;-73
2022/08/26 09:02:26;;;;;;;22.52;6.65;;;;;;;29.90;76.32;100455.72;5205866;28;20059;-72
2022/08/26 09:04:59;;;;;;;23.52;6.90;;;;;;;30.29;73.86;100452.91;5197663;28;20045;-73
2022/08/26 09:07:35;;;;;;;30.20;8.07;;;;;;;29.20;76.00;100453.31;5206483;28;20029;-72
2022/08/26 09:10:24;;;;;;;24.88;6.60;;;;;;;29.81;74.64;100445.19;5212200;28;20124;-74
2022/08/26 09:12:55;;;;;;;26.48;7.22;;;;;;;29.28;75.95;100442.47;5204223;28;20037;-73
2022/08/26 09:16:02;;;;;;;27.40;7.20;;;;;;;29.27;77.67;100438.13;5194812;28;20037;-73
2022/08/26 09:18:46;;;;;;;;;;;;;;;28.67;79.20;100433.47;5194804;28;20033;-72
2022/08/26 09:21:18;;;;;;;27.02;6.88;;;;;;;28.73;78.82;100431.75;5207015;28;19920;-72
2022/08/26 09:23:51;;;;;;;28.30;7.18;;;;;;;28.46;79.18;100428.63;5205121;28;20037;-73
2022/08/26 09:26:27;;;;;;;26.98;7.25;;;;;;;28.53;79.11;100426.97;5209280;28;20029;-72
2022/08/26 09:29:00;;;;;;;19.35;7.32;;;;;;;28.30;79.66;100419.75;5199882;28;20055;-72
2022/08/26 09:31:34;;;;;;;25.02;7.60;;;;;;;28.08;80.89;100429.34;5208088;28;20067;-72
2022/08/26 09:34:22;;;;;;;31.20;7.43;;;;;;;28.07;81.51;100424.13;5209220;28;20025;-73
2022/08/26 09:36:54;;;;;;;26.90;7.15;;;;;;;27.98;80.89;100428.66;5203142;28;20491;-72
2022/08/26 09:39:27;;;;;;;27.23;6.80;;;;;;;27.93;83.68;100428.34;5185288;28;20029;-73
2022/08/26 09:42:10;;;;;;;25.02;7.25;;;;;;;28.07;81.76;100419.59;5206167;28;20025;-72
2022/08/26 09:44:52;;;;;;;25.33;7.47;;;;;;;28.00;80.88;100421.31;5208723;28;20533;-72
2022/08/26 09:47:29;;;;;;;35.45;7.38;;;;;;;27.61;83.63;100422.91;5199080;28;20399;-72
2022/08/26 09:50:04;;;;;;;23.35;7.63;;;;;;;27.55;83.96;100415.53;5204122;28;20071;-72
2022/08/26 09:52:34;;;;;;;25.05;6.78;;;;;;;27.49;86.40;100413.53;5210993;28;20402;-72
2022/08/26 09:55:13;;;;;;;21.35;6.93;;;;;;;27.65;84.47;100413.50;5211324;28;20090;-72
2022/08/26 09:57:54;;;;;;;19.02;6.90;;;;;;;27.48;88.55;100411.00;5211090;28;20025;-72
2022/08/26 10:00:30;;;;;;;22.73;6.80;;;;;;;27.71;86.15;100407.53;5204677;28;20025;-72
2022/08/26 10:03:21;;;;;;;23.10;6.63;;;;;;;27.71;85.72;100412.00;5211689;28;20067;-72
2022/08/26 10:06:05;;;;;;;25.38;6.88;;;;;;;27.61;86.95;100411.34;5213183;28;20043;-72
2022/08/26 10:08:38;;;;;;;24.70;7.18;;;;;;;28.02;83.54;100408.53;5206462;28;20033;-72
2022/08/26 10:11:24;;;;;;;20.98;6.90;;;;;;;28.06;82.74;100401.81;5203493;28;20057;-72
2022/08/26 10:14:00;;;;;;;28.55;7.07;;;;;;;28.16;81.78;100407.81;5203541;28;20029;-72
2022/08/26 10:16:46;;;;;;;26.00;6.88;;;;;;;28.00;82.27;100402.50;5209314;28;20049;-72
2022/08/26 10:19:28;;;;;;;38.53;7.70;;;;;;;27.51;85.61;100399.91;5211219;28;20032;-72
2022/08/26 10:22:12;;;;;;;22.02;7.30;;;;;;;27.51;87.24;100400.78;5206402;28;20033;-72
2022/08/26 10:24:47;;;;;;;25.65;7.63;;;;;;;27.82;86.25;100393.75;5209827;28;20033;-72
2022/08/26 10:27:49;;;;;;;35.60;7.15;;;;;;;27.55;88.34;100394.06;5210592;28;20107;-72
2022/08/26 10:30:23;;;;;;;30.55;7.68;;;;;;;27.48;89.42;100397.56;5212318;28;20102;-72
2022/08/26 10:33:06;;;;;;;25.08;7.22;;;;;;;27.44;90.24;100389.00;5204192;28;20029;-72
2022/08/26 10:35:50;;;;;;;26.58;7.30;;;;;;;27.77;85.90;100381.84;5210577;28;20418;-72
2022/08/26 10:38:41;;;;;;;19.70;6.43;;;;;;;28.09;84.42;100371.88;5209397;28;20037;-72
2022/08/26 10:41:19;;;;;;;24.63;7.28;;;;;;;28.45;82.29;100383.09;5202736;28;20045;-73
2022/08/26 10:43:59;;;;;;;21.63;6.55;;;;;;;28.57;81.61;100373.63;5200149;28;20071;-72
2022/08/26 10:46:46;;;;;;;29.50;6.80;;;;;;;28.61;81.12;100381.19;5204630;28;20025;-72
2022/08/26 10:49:17;;;;;;;32.42;7.22;;;;;;;28.83;81.22;100375.03;5199327;28;20025;-72
2022/08/26 10:52:12;;;;;;;21.15;6.20;;;;;;;28.81;79.35;100369.84;5211823;28;20025;-72
2022/08/26 10:54:58;;;;;;;21.20;7.72;;;;;;;28.89;79.01;100366.31;5208745;28;20292;-72
2022/08/26 10:57:46;;;;;;;22.95;6.47;;;;;;;29.09;78.42;100362.16;5203286;28;20125;-72
2022/08/26 11:03:44;;;;;;;25.27;7.20;;;;;;;29.17;79.75;100348.63;5212082;28;20068;-73
2022/08/26 11:06:17;;;;;;;29.52;6.03;;;;;;;28.91;80.27;100357.00;5210846;28;20033;-72
2022/08/26 11:08:51;;;;;;;24.25;6.70;;;;;;;29.28;77.31;100346.38;5207151;28;20526;-72
2022/08/26 11:11:40;;;;;;;32.30;6.97;;;;;;;28.67;77.89;100347.38;5203894;28;20403;-72
2022/08/26 11:14:30;;;;;;;23.10;6.00;;;;;;;28.90;78.65;100349.13;5209558;28;20086;-73
2022/08/26 11:17:01;;;;;;;24.40;6.60;;;;;;;28.91;78.37;100340.03;5201263;28;20030;-72
2022/08/26 11:19:34;;;;;;;21.35;6.45;;;;;;;28.93;76.67;100346.09;5200356;28;20064;-72
2022/08/26 11:22:09;;;;;;;30.08;6.10;;;;;;;28.94;79.91;100340.53;5209793;28;20120;-72
2022/08/26 11:24:52;;;;;;;;;;;;;;;28.92;78.81;100336.34;5210008;28;20025;-72
2022/08/26 11:27:23;;;;;;;25.92;6.55;;;;;;;28.51;79.35;100317.84;5184852;28;20255;-72
2022/08/26 11:30:03;;;;;;;20.55;6.38;;;;;;;28.88;78.94;100318.84;5209331;28;20094;-72
2022/08/26 11:32:33;;;;;;;24.80;6.68;;;;;;;28.80;79.72;100308.09;5209513;28;20032;-72
2022/08/26 11:35:11;;;;;;;31.02;6.97;;;;;;;28.86;80.90;100315.50;5210424;28;20037;-72
2022/08/26 11:38:20;;;;;;;27.73;6.72;;;;;;;28.87;78.90;100301.84;5208793;28;20033;-72
2022/08/26 11:41:19;;;;;;;26.90;6.32;;;;;;;28.78;77.26;100291.28;5210241;28;20041;-72
2022/08/26 11:43:51;;;;;;;25.38;6.45;;;;;;;28.56;78.69;100292.09;5204409;28;20041;-72
2022/08/26 11:46:27;;;;;;;24.58;6.13;;;;;;;28.49;79.38;100285.72;5208609;28;20036;-72
2022/08/26 11:49:04;;;;;;;27.63;6.63;;;;;;;28.72;79.15;100275.88;5196298;28;20021;-72
2022/08/26 11:51:35;;;;;;;28.30;6.55;;;;;;;28.72;78.37;100273.19;5208876;28;20108;-72
2022/08/26 11:54:11;;;;;;;24.83;6.72;;;;;;;28.55;78.69;100284.19;5209365;28;20115;-72
2022/08/26 11:56:44;;;;;;;19.38;6.22;;;;;;;28.61;78.64;100276.25;5208252;28;20026;-72
2022/08/26 11:59:25;;;;;;;28.05;6.75;;;;;;;28.73;77.34;100277.53;5207651;28;20219;-72